Time;durP1;ratioP1;P1;durP2;ratioP2;P2;SDS_P1;SDS_P2;PMS_P1;PMS_P2;Temp;Humidity;BMP_temperature;BMP_pressure;BME280_temperature;BME280_humidity;BME280_pressure;Samples;Min_cycle;Max_cycle;Signal;HPM_P1;HPM_P2
2021/10/20 01:58:38;;;;;;;16.65;8.32;;;;;;;;;;6115710;22;2297300;-90
2021/10/20 02:01:43;;;;;;;15.15;8.70;;;;;;;;;;6225247;23;20312;-90
2021/10/20 02:04:48;;;;;;;17.10;7.93;;;;;;;;;;6227766;23;20170;-89
2021/10/20 02:07:53;;;;;;;16.55;8.05;;;;;;;;;;6228534;23;20182;-89
2021/10/20 02:10:58;;;;;;;14.73;8.55;;;;;;;;;;6226927;23;20237;-89
2021/10/20 02:14:06;;;;;;;12.38;7.75;;;;;;;;;;6227357;23;20171;-90
2021/10/20 02:17:11;;;;;;;13.18;7.65;;;;;;;;;;6229679;23;20330;-89
2021/10/20 02:20:17;;;;;;;15.27;7.72;;;;;;;;;;6229458;23;20515;-90
2021/10/20 02:23:23;;;;;;;14.43;8.10;;;;;;;;;;6228482;23;20218;-91
2021/10/20 02:26:28;;;;;;;15.68;8.18;;;;;;;;;;6228600;23;20253;-89
2021/10/20 02:29:35;;;;;;;17.27;7.90;;;;;;;;;;6228164;23;20541;-90
2021/10/20 02:32:40;;;;;;;12.70;7.25;;;;;;;;;;6228686;23;20191;-90
2021/10/20 02:35:45;;;;;;;13.65;7.55;;;;;;;;;;6229199;23;20162;-90
2021/10/20 02:38:50;;;;;;;12.18;6.90;;;;;;;;;;6228563;23;20197;-90
2021/10/20 02:41:55;;;;;;;14.48;7.40;;;;;;;;;;6228328;23;20253;-90
2021/10/20 02:45:02;;;;;;;14.13;7.72;;;;;;;;;;6229866;23;20159;-90
2021/10/20 02:48:07;;;;;;;13.80;7.60;;;;;;;;;;6227517;23;20170;-90
2021/10/20 02:51:13;;;;;;;13.82;7.68;;;;;;;;;;6228964;23;20245;-90
2021/10/20 02:54:19;;;;;;;16.30;8.43;;;;;;;;;;6227244;23;20171;-89
2021/10/20 02:57:27;;;;;;;28.13;10.95;;;;;;;;;;6227239;23;20259;-90
2021/10/20 03:00:34;;;;;;;21.52;8.85;;;;;;;;;;6226460;23;20170;-90
2021/10/20 03:03:40;;;;;;;17.48;7.55;;;;;;;;;;6225673;23;20167;-90
2021/10/20 03:06:45;;;;;;;24.20;8.95;;;;;;;;;;6227596;23;20186;-90
2021/10/20 03:09:50;;;;;;;16.02;7.93;;;;;;;;;;6228012;23;20171;-92
2021/10/20 03:12:55;;;;;;;15.95;8.13;;;;;;;;;;6225151;23;20670;-90
2021/10/20 03:16:01;;;;;;;17.33;8.50;;;;;;;;;;6226142;23;20175;-90
2021/10/20 03:19:07;;;;;;;17.42;8.57;;;;;;;;;;6225270;23;20665;-91
2021/10/20 03:22:12;;;;;;;19.23;8.90;;;;;;;;;;6227380;23;20159;-92
2021/10/20 03:25:17;;;;;;;13.73;7.13;;;;;;;;;;6226989;23;20279;-90
2021/10/20 03:28:23;;;;;;;17.23;7.67;;;;;;;;;;6225620;23;20233;-90
2021/10/20 03:31:29;;;;;;;15.05;7.78;;;;;;;;;;6226160;23;20171;-89
2021/10/20 03:34:34;;;;;;;15.93;8.02;;;;;;;;;;6227138;23;20159;-90
2021/10/20 03:37:41;;;;;;;21.65;8.40;;;;;;;;;;6228115;23;20198;-89
2021/10/20 03:40:46;;;;;;;19.57;8.40;;;;;;;;;;6227792;23;20178;-89
2021/10/20 03:43:51;;;;;;;15.68;7.93;;;;;;;;;;6227226;23;20179;-90
2021/10/20 03:47:00;;;;;;;14.73;7.72;;;;;;;;;;6229837;23;20203;-89
2021/10/20 03:50:06;;;;;;;16.40;8.00;;;;;;;;;;6232831;23;20198;-90
2021/10/20 03:53:11;;;;;;;18.48;8.93;;;;;;;;;;6232499;23;20162;-90
2021/10/20 03:56:17;;;;;;;16.58;8.10;;;;;;;;;;6232439;23;20175;-90
2021/10/20 03:59:24;;;;;;;16.80;8.33;;;;;;;;;;6233437;23;20267;-91
2021/10/20 04:02:46;;;;;;;15.60;8.40;;;;;;;;;;6233644;23;20262;-90
2021/10/20 04:05:52;;;;;;;18.67;9.20;;;;;;;;;;6234057;23;20554;-90
2021/10/20 04:08:58;;;;;;;15.17;8.57;;;;;;;;;;6234379;23;20342;-90
2021/10/20 04:12:04;;;;;;;19.33;9.40;;;;;;;;;;6234359;23;20156;-90
2021/10/20 04:15:10;;;;;;;16.43;8.90;;;;;;;;;;6233621;23;20243;-90
2021/10/20 04:18:19;;;;;;;16.07;8.10;;;;;;;;;;6233181;23;20191;-88
2021/10/20 04:21:24;;;;;;;20.73;9.63;;;;;;;;;;6234188;23;20210;-89
2021/10/20 04:24:30;;;;;;;18.57;8.33;;;;;;;;;;6234382;23;20248;-89
2021/10/20 04:27:36;;;;;;;19.10;7.97;;;;;;;;;;6233330;23;20158;-90
2021/10/20 04:30:41;;;;;;;19.67;9.00;;;;;;;;;;6232613;23;20218;-88
2021/10/20 04:33:48;;;;;;;21.40;8.83;;;;;;;;;;6234178;23;20203;-88
2021/10/20 04:36:54;;;;;;;33.43;10.43;;;;;;;;;;6233176;23;20179;-89
2021/10/20 04:40:00;;;;;;;27.33;10.20;;;;;;;;;;6233015;23;20218;-90
2021/10/20 04:43:05;;;;;;;26.93;10.83;;;;;;;;;;6232366;23;20170;-90
2021/10/20 04:46:10;;;;;;;24.30;10.87;;;;;;;;;;6233611;23;20210;-89
2021/10/20 04:49:22;;;;;;;21.90;10.00;;;;;;;;;;6232453;23;20178;-89
2021/10/20 04:52:30;;;;;;;27.13;9.77;;;;;;;;;;6233141;23;20162;-90
2021/10/20 04:55:36;;;;;;;17.33;9.50;;;;;;;;;;6231664;23;20171;-91
2021/10/20 04:58:40;;;;;;;22.07;9.33;;;;;;;;;;6231997;23;20210;-90
2021/10/20 05:01:46;;;;;;;19.33;8.40;;;;;;;;;;6232696;23;20187;-89
2021/10/20 05:04:54;;;;;;;17.43;9.27;;;;;;;;;;6231728;23;20218;-90
2021/10/20 05:07:59;;;;;;;17.63;8.33;;;;;;;;;;6230985;23;20673;-90
2021/10/20 05:11:05;;;;;;;22.13;8.47;;;;;;;;;;6231033;23;20175;-90
2021/10/20 05:14:10;;;;;;;17.77;9.00;;;;;;;;;;6232091;23;20222;-90
2021/10/20 05:17:16;;;;;;;16.13;8.23;;;;;;;;;;6234549;23;20471;-91
2021/10/20 05:20:23;;;;;;;15.73;8.53;;;;;;;;;;6235884;23;20175;-90
2021/10/20 05:23:30;;;;;;;17.97;9.13;;;;;;;;;;6233007;23;20298;-90
2021/10/20 05:26:36;;;;;;;20.70;8.53;;;;;;;;;;6232075;23;20504;-92
2021/10/20 05:29:42;;;;;;;20.47;9.40;;;;;;;;;;6231913;23;20219;-89
2021/10/20 05:32:52;;;;;;;18.13;8.97;;;;;;;;;;6233661;23;20170;-89
2021/10/20 05:36:03;;;;;;;19.70;8.57;;;;;;;;;;6231978;23;20175;-91
2021/10/20 05:42:31;;;;;;;18.47;9.40;;;;;;;;;;6232936;23;20155;-90
2021/10/20 05:45:40;;;;;;;24.60;9.33;;;;;;;;;;6232243;23;20285;-91
2021/10/20 05:48:46;;;;;;;19.13;8.37;;;;;;;;;;6233872;23;20195;-91
2021/10/20 05:51:53;;;;;;;16.40;8.63;;;;;;;;;;6230324;23;20163;-90
2021/10/20 05:54:59;;;;;;;17.43;8.73;;;;;;;;;;6230266;23;20163;-91
2021/10/20 05:58:05;;;;;;;18.67;9.30;;;;;;;;;;6228046;23;20303;-91
2021/10/20 06:01:12;;;;;;;18.57;8.57;;;;;;;;;;6228643;23;20208;-90
2021/10/20 06:04:17;;;;;;;16.17;8.80;;;;;;;;;;6228168;23;20372;-90
2021/10/20 06:07:24;;;;;;;26.43;10.37;;;;;;;;;;6230865;23;20217;-90
2021/10/20 06:10:31;;;;;;;16.20;8.90;;;;;;;;;;6231458;23;20222;-91
2021/10/20 06:13:36;;;;;;;16.23;9.40;;;;;;;;;;6227451;23;20535;-91
2021/10/20 06:16:42;;;;;;;21.03;9.77;;;;;;;;;;6231479;23;20216;-91
2021/10/20 06:19:48;;;;;;;25.87;9.03;;;;;;;;;;6228325;23;20190;-91
2021/10/20 06:22:55;;;;;;;19.57;10.00;;;;;;;;;;6228439;23;20167;-90
2021/10/20 06:26:01;;;;;;;21.30;10.80;;;;;;;;;;6228502;23;20303;-91
2021/10/20 06:29:06;;;;;;;18.33;9.73;;;;;;;;;;6228656;23;20237;-90
2021/10/20 06:32:17;;;;;;;21.40;8.97;;;;;;;;;;6232078;23;20163;-90
2021/10/20 06:35:25;;;;;;;20.60;9.90;;;;;;;;;;6235048;23;20282;-90
2021/10/20 06:38:34;;;;;;;17.10;9.13;;;;;;;;;;6234187;23;20218;-90
2021/10/20 06:41:40;;;;;;;16.93;8.93;;;;;;;;;;6234829;23;20162;-89
2021/10/20 06:44:46;;;;;;;19.13;9.20;;;;;;;;;;6233855;23;20164;-91
2021/10/20 06:47:52;;;;;;;22.37;8.90;;;;;;;;;;6235256;23;20171;-90
2021/10/20 06:50:58;;;;;;;19.87;9.67;;;;;;;;;;6240034;23;20206;-90
2021/10/20 06:54:08;;;;;;;18.17;8.47;;;;;;;;;;6237277;23;20167;-90
2021/10/20 06:57:14;;;;;;;21.87;8.77;;;;;;;;;;6236077;23;20258;-92
2021/10/20 07:00:20;;;;;;;19.17;8.33;;;;;;;;;;6231723;23;20632;-89
2021/10/20 07:03:25;;;;;;;20.13;9.40;;;;;;;;;;6230185;23;20218;-91
2021/10/20 07:06:30;;;;;;;21.97;8.60;;;;;;;;;;6231132;23;20182;-90
2021/10/20 07:09:46;;;;;;;18.70;8.70;;;;;;;;;;6231127;23;20159;-91
2021/10/20 07:12:54;;;;;;;17.80;8.53;;;;;;;;;;6228787;23;20225;-90
2021/10/20 07:15:59;;;;;;;17.97;7.87;;;;;;;;;;6229122;23;20230;-90
2021/10/20 07:19:06;;;;;;;18.37;8.87;;;;;;;;;;6230621;23;20263;-90
2021/10/20 07:22:14;;;;;;;16.50;8.43;;;;;;;;;;6230876;23;20167;-89
2021/10/20 07:25:22;;;;;;;19.65;8.90;;;;;;;;;;6230665;23;20167;-91
2021/10/20 07:28:27;;;;;;;17.23;8.75;;;;;;;;;;6229973;23;20190;-89
2021/10/20 07:31:33;;;;;;;18.02;8.85;;;;;;;;;;6234612;23;20186;-90
2021/10/20 07:34:38;;;;;;;18.60;9.10;;;;;;;;;;6235468;23;20174;-89
2021/10/20 07:37:44;;;;;;;23.85;9.10;;;;;;;;;;6234980;23;20247;-90
2021/10/20 07:40:51;;;;;;;20.95;8.98;;;;;;;;;;6235168;23;20250;-89
2021/10/20 07:43:56;;;;;;;17.25;9.20;;;;;;;;;;6234587;23;20171;-91
2021/10/20 07:47:02;;;;;;;16.55;8.73;;;;;;;;;;6235855;23;20171;-91
2021/10/20 07:50:08;;;;;;;15.60;8.18;;;;;;;;;;6232838;23;20218;-91
2021/10/20 07:53:13;;;;;;;16.17;7.63;;;;;;;;;;6234252;23;20654;-91
2021/10/20 07:56:21;;;;;;;18.02;8.80;;;;;;;;;;6234979;23;20175;-91
2021/10/20 07:59:29;;;;;;;19.70;8.32;;;;;;;;;;6234490;23;20231;-89
2021/10/20 08:02:34;;;;;;;21.77;8.20;;;;;;;;;;6234786;23;20267;-91
2021/10/20 08:05:39;;;;;;;20.23;7.65;;;;;;;;;;6234571;23;20171;-89
2021/10/20 08:08:48;;;;;;;16.15;7.75;;;;;;;;;;6233743;23;20216;-91
2021/10/20 08:11:56;;;;;;;16.23;7.57;;;;;;;;;;6235594;23;20166;-92
2021/10/20 08:15:02;;;;;;;14.52;8.05;;;;;;;;;;6236307;23;20240;-90
2021/10/20 08:18:08;;;;;;;16.73;8.45;;;;;;;;;;6236336;23;20187;-91
2021/10/20 08:21:13;;;;;;;16.95;8.90;;;;;;;;;;6236209;23;20162;-91
2021/10/20 08:24:18;;;;;;;26.88;8.50;;;;;;;;;;6236242;23;20159;-92
2021/10/20 08:27:27;;;;;;;22.60;9.30;;;;;;;;;;6237843;23;20179;-90
2021/10/20 08:30:34;;;;;;;20.88;9.13;;;;;;;;;;6236237;23;20168;-91
2021/10/20 08:33:40;;;;;;;19.83;9.02;;;;;;;;;;6238559;23;20216;-90
2021/10/20 08:36:46;;;;;;;20.17;8.82;;;;;;;;;;6237108;23;20170;-92
2021/10/20 08:39:51;;;;;;;19.38;8.73;;;;;;;;;;6234032;23;20199;-91
2021/10/20 08:42:59;;;;;;;20.38;8.23;;;;;;;;;;6234489;23;20151;-89
2021/10/20 08:46:06;;;;;;;22.65;8.90;;;;;;;;;;6234255;23;20183;-91
2021/10/20 08:49:12;;;;;;;21.25;8.27;;;;;;;;;;6236735;23;20171;-90
2021/10/20 08:52:17;;;;;;;16.80;7.38;;;;;;;;;;6233967;23;20175;-90
2021/10/20 08:55:23;;;;;;;17.85;7.72;;;;;;;;;;6233790;23;20179;-90
2021/10/20 08:58:30;;;;;;;15.77;7.78;;;;;;;;;;6234874;23;20270;-91
2021/10/20 09:01:35;;;;;;;20.70;7.45;;;;;;;;;;6232826;23;20301;-91
2021/10/20 09:04:40;;;;;;;19.50;7.57;;;;;;;;;;6233899;23;20202;-89
2021/10/20 09:07:46;;;;;;;16.05;7.32;;;;;;;;;;6234205;23;20240;-91
2021/10/20 09:14:19;;;;;;;14.82;6.88;;;;;;;;;;6233329;23;20299;-90
2021/10/20 09:17:25;;;;;;;19.67;10.60;;;;;;;;;;6232697;23;20179;-90
2021/10/20 09:20:33;;;;;;;16.27;6.97;;;;;;;;;;6232978;23;20195;-91
2021/10/20 09:23:39;;;;;;;14.60;6.80;;;;;;;;;;6231367;23;20541;-92
2021/10/20 09:26:44;;;;;;;14.70;6.70;;;;;;;;;;6231261;23;20159;-91
2021/10/20 09:29:51;;;;;;;12.00;5.97;;;;;;;;;;6229622;23;20199;-90
2021/10/20 22:07:56;;;;;;;13.68;6.90;;;;;;;;;;6210312;22;20215;-90
2021/10/20 22:11:02;;;;;;;13.82;7.15;;;;;;;;;;6225377;23;20168;-92
2021/10/20 22:14:08;;;;;;;12.40;6.43;;;;;;;;;;6226948;23;20175;-90
2021/10/20 22:17:13;;;;;;;14.90;7.05;;;;;;;;;;6229528;23;20211;-90
2021/10/20 22:20:19;;;;;;;15.77;6.90;;;;;;;;;;6233489;23;20190;-91
2021/10/20 22:23:25;;;;;;;12.25;6.78;;;;;;;;;;6232917;23;20218;-91
2021/10/20 22:26:31;;;;;;;12.88;6.32;;;;;;;;;;6228476;23;20238;-89
2021/10/20 22:29:38;;;;;;;16.15;6.93;;;;;;;;;;6228449;23;20252;-91
2021/10/20 22:33:05;;;;;;;16.83;6.53;;;;;;;;;;6228087;23;20193;-90
2021/10/20 22:36:14;;;;;;;13.65;6.45;;;;;;;;;;6234361;23;20178;-92
2021/10/20 22:39:21;;;;;;;11.63;5.95;;;;;;;;;;6236230;23;20210;-89
2021/10/20 22:42:27;;;;;;;14.00;6.43;;;;;;;;;;6237040;23;20178;-91
2021/10/20 22:45:35;;;;;;;15.85;7.13;;;;;;;;;;6235085;23;20190;-90
2021/10/20 22:48:40;;;;;;;12.20;5.97;;;;;;;;;;6234398;23;20175;-90
2021/10/20 22:51:46;;;;;;;15.23;6.60;;;;;;;;;;6235223;23;20159;-90
2021/10/20 22:54:55;;;;;;;17.15;6.60;;;;;;;;;;6216321;23;20167;-91
2021/10/20 22:58:01;;;;;;;14.70;6.28;;;;;;;;;;6233175;23;20214;-90
2021/10/20 23:01:06;;;;;;;10.10;5.95;;;;;;;;;;6232922;23;20194;-90
2021/10/20 23:04:11;;;;;;;12.63;5.97;;;;;;;;;;6232512;23;20217;-90
2021/10/20 23:07:16;;;;;;;12.93;6.13;;;;;;;;;;6233410;23;20492;-91
2021/10/20 23:10:27;;;;;;;15.57;6.38;;;;;;;;;;6229314;23;20171;-91
2021/10/20 23:13:41;;;;;;;12.52;6.43;;;;;;;;;;6228950;23;20190;-89
2021/10/20 23:16:47;;;;;;;15.68;6.95;;;;;;;;;;6229355;23;20174;-89
2021/10/20 23:19:53;;;;;;;14.30;6.65;;;;;;;;;;6229415;23;20191;-90
2021/10/20 23:22:58;;;;;;;13.70;7.00;;;;;;;;;;6229482;23;20221;-89
2021/10/20 23:26:06;;;;;;;13.40;6.30;;;;;;;;;;6229215;23;20163;-90
2021/10/20 23:29:12;;;;;;;12.50;6.20;;;;;;;;;;6232140;23;20241;-91
2021/10/20 23:32:17;;;;;;;12.93;6.32;;;;;;;;;;6227430;23;20171;-91
2021/10/20 23:35:26;;;;;;;11.95;5.90;;;;;;;;;;6228812;23;20619;-91
2021/10/20 23:38:33;;;;;;;13.82;6.63;;;;;;;;;;6227593;23;20673;-90
2021/10/20 23:41:40;;;;;;;11.57;6.45;;;;;;;;;;6227984;23;20195;-90
2021/10/20 23:44:45;;;;;;;11.13;5.85;;;;;;;;;;6226740;23;20170;-90
2021/10/20 23:47:52;;;;;;;12.13;6.20;;;;;;;;;;6232301;23;20163;-92
2021/10/20 23:50:59;;;;;;;12.15;6.38;;;;;;;;;;6232655;23;20219;-89
2021/10/20 23:54:05;;;;;;;13.88;6.95;;;;;;;;;;6230106;23;20301;-91
2021/10/20 23:57:11;;;;;;;12.35;6.50;;;;;;;;;;6226532;23;20611;-89
